Friday, February 23, 2018, 1:44 PM EST
Back to Local

KCDW, Caldwell Essex County Airport

Location: Fairfield, NJ, United States Lat: 40.883
Local Time: 1:44 PM EST (18:44 GMT) Lon: -74.283
Time Zone: US/Eastern Elev: 173 ft

Show me the last for .
Show Decoded

2018-02-23 12:53 METAR KCDW 231753Z 07004KT 2 1/2SM BR OVC007 03/02 A3052 RMK AO2 CIG 006V011
                 SLP341 60000 T00280022 10028 20017 58037 =
2018-02-23 12:00 METAR KCDW 231700Z 11004KT 3SM BR OVC008 02/02 A3055 RMK AO2 T00220022 =
2018-02-23 11:53 METAR KCDW 231653Z 11004KT 2 1/2SM BR OVC008 02/02 A3056 RMK AO2 RAE37 CIG
                 007V011 SLP355 P0000 T00220022 =
2018-02-23 10:53 METAR KCDW 231553Z 10006KT 2 1/2SM -RA BR OVC008 02/02 A3060 RMK AO2 RAB43
                 SLP369 P0000 T00220017 =
2018-02-23 10:14 METAR KCDW 231514Z 08006KT 2 1/2SM BR OVC011 02/01 A3061 RMK AO2 CIG 007V015
                 T00170011 =
2018-02-23 09:53 METAR KCDW 231453Z 11005KT 5SM BR OVC012 02/01 A3063 RMK AO2 RAB1359E24UPB24E30
                 SLP379 P0000 60000 T00170011 50000 =
2018-02-23 09:12 METAR KCDW 231412Z 11004KT 4SM -RA BR OVC014 02/01 A3064 RMK AO2 RAB1359 P0000
                 T00220006 =
2018-02-23 08:53 METAR KCDW 231353Z 10005KT 10SM OVC015 02/00 A3064 RMK AO2 SLP385 T00220000 =
2018-02-23 08:41 METAR KCDW 231341Z 08006KT 10SM OVC015 02/00 A3065 RMK AO2 T00220000 =
2018-02-23 07:53 METAR KCDW 231253Z 07006KT 10SM OVC012 02/01 A3064 RMK AO2 SLP384 T00170006 =
2018-02-23 06:53 METAR KCDW 231153Z 08007KT 10SM OVC013 02/01 A3063 RMK AO2 SLP379 70016
                 T00170006 10022 20017 58009 =
2018-02-23 05:53 METAR KCDW 231053Z AUTO 08008KT 10SM BKN011 OVC038 02/01 A3064 RMK AO2 SLP382
                 T00170006 TSNO =
2018-02-23 04:53 METAR KCDW 230953Z AUTO 07007KT 10SM OVC011 02/01 A3066 RMK AO2 SLP389 T00170006
                 TSNO =
2018-02-23 03:53 METAR KCDW 230853Z AUTO 08005KT 10SM OVC011 02/01 A3065 RMK AO2 SLP388 T00170006
                 55008 TSNO =
2018-02-23 02:53 METAR KCDW 230753Z AUTO 07007KT 10SM OVC010 02/01 A3065 RMK AO2 SLP385 T00170006
                 TSNO =
2018-02-23 01:53 METAR KCDW 230653Z AUTO 06006KT 10SM OVC011 02/01 A3068 RMK AO2 SLP398 T00170006
                 TSNO =
2018-02-23 00:53 METAR KCDW 230553Z AUTO 05005KT 10SM OVC012 02/01 A3068 RMK AO2 SLP395 T00220006
                 10033 20022 52010 TSNO =
2018-02-22 23:53 METAR KCDW 230453Z AUTO 07006KT 10SM OVC012 02/01 A3067 RMK AO2 SLP391 T00220011
                 401280022 TSNO =
2018-02-22 23:00 METAR KCDW 230400Z AUTO 05005KT 10SM BKN014 OVC020 02/01 A3066 RMK AO2 T00220011
                 TSNO =
2018-02-22 22:53 METAR KCDW 230353Z AUTO 06007KT 10SM OVC016 02/01 A3066 RMK AO2 SLP389 T00220011
                 TSNO =
2018-02-22 21:53 METAR KCDW 230253Z 05004KT 10SM OVC017 02/01 A3065 RMK AO2 SLP385 T00220011
                 50006 =
2018-02-22 21:08 METAR KCDW 230208Z COR 05004KT 10SM SCT012 BKN019 02/01 A3065 RMK AO2 T00220011
                 =
2018-02-22 21:00 METAR KCDW 230200Z 06004KT 10SM BKN012 OVC021 02/01 A3066 RMK AO2 T00220011 =
2018-02-22 20:53 METAR KCDW 230153Z 05004KT 10SM BKN009 BKN019 OVC028 02/01 A3066 RMK AO2 SLP389
                 T00220011 =
2018-02-22 19:53 METAR KCDW 230053Z AUTO VRB06KT 10SM BKN009 BKN017 OVC027 03/02 A3063 RMK AO2
                 CIG 008V014 SLP380 T00280017 TSNO =
2018-02-22 19:06 METAR KCDW 230006Z 06005KT 10SM BKN009 BKN020 OVC027 03/03 A3062 RMK AO2 CIG
                 007V011 T00330028 =
2018-02-22 18:53 METAR KCDW 222353Z 07005KT 10SM FEW009 BKN018 OVC026 03/03 A3063 RMK AO2 RAE2256
                 PRESFR SLP379 P0000 60012 I6000 T00280028 10056 20022 50007 =
2018-02-22 18:22 METAR KCDW 222322Z 05005KT 10SM FEW009 BKN026 OVC065 03/03 A3066 RMK AO2 RAE2256
                 P0000 T00280028 =
2018-02-22 18:13 METAR KCDW 222313Z 05005KT 10SM FEW009 SCT028 OVC065 03/03 A3065 RMK AO2 RAE2256
                 P0000 T00280028 =
2018-02-22 17:53 METAR KCDW 222253Z 08006KT 10SM -RA OVC065 03/02 A3064 RMK AO2 SLP384 P0000
                 I1000 T00280022 =
2018-02-22 16:53 METAR KCDW 222153Z 06007KT 2 1/2SM -RA BR FEW008 BKN048 OVC060 02/02 A3064 RMK
                 AO2 SLP383 P0003 T00220017 =
2018-02-22 16:40 METAR KCDW 222140Z 07008KT 2 1/2SM -RA BR SCT009 BKN035 OVC060 02/02 A3064 RMK
                 AO2 P0003 T00220017 =
2018-02-22 15:53 METAR KCDW 222053Z 05005KT 1 3/4SM RA BR FEW009 BKN038 OVC049 03/02 A3061 RMK
                 AO2 SLP371 P0005 60009 T00280022 53013 =
2018-02-22 15:45 METAR KCDW 222045Z 02005KT 1 3/4SM RA BR FEW015 BKN040 OVC049 03/02 A3061 RMK
                 AO2 P0003 T00280022 =
2018-02-22 15:29 METAR KCDW 222029Z 03006KT 3SM -RA BR FEW009 FEW013 OVC040 03/02 A3060 RMK AO2
                 P0001 T00280022 =
2018-02-22 15:10 METAR KCDW 222010Z 05006KT 3SM -RA BR SCT009 BKN026 OVC031 03/03 A3058 RMK AO2
                 P0001 T00330028 =
2018-02-22 14:53 METAR KCDW 221953Z VRB04KT 2 1/2SM -RA BR FEW015 BKN025 OVC031 04/03 A3059 RMK
                 AO2 SLP366 P0004 T00390033 =
2018-02-22 14:22 METAR KCDW 221922Z VRB06KT 2 1/2SM -RA BR BKN021 BKN026 OVC039 04/03 A3057 RMK
                 AO2 P0000 T00390028 =
2018-02-22 14:15 METAR KCDW 221915Z 05005KT 3SM -RA BR BKN021 OVC039 04/03 A3056 RMK AO2 P0000
                 T00390028 =
2018-02-22 13:53 METAR KCDW 221853Z VRB03KT 3SM -RA BR OVC037 04/03 A3057 RMK AO2 SLP359 P0000
                 T00390028 =

Support USWX by starting your Amazon purchase here.